sensor_id;sensor_type;location;lat;lon;timestamp;noise_LAeq;noise_LA_min;noise_LA_max;noise_LA01;noise_LA95
58303;Laerm;44109;52.398;7.024;2023-08-12T00:00:35;61.73;38.57;86.41;;
58303;Laerm;44109;52.398;7.024;2023-08-12T00:03:04;62.60;41.93;93.47;;
58303;Laerm;44109;52.398;7.024;2023-08-12T00:05:32;65.75;39.45;101.26;;
58303;Laerm;44109;52.398;7.024;2023-08-12T00:08:02;62.45;37.67;97.31;;
58303;Laerm;44109;52.398;7.024;2023-08-12T00:10:29;61.25;36.31;95.56;;
58303;Laerm;44109;52.398;7.024;2023-08-12T00:12:57;55.89;34.60;90.17;;
58303;Laerm;44109;52.398;7.024;2023-08-12T00:15:25;51.30;34.94;78.39;;
58303;Laerm;44109;52.398;7.024;2023-08-12T00:17:54;52.45;33.81;83.98;;
58303;Laerm;44109;52.398;7.024;2023-08-12T00:20:22;58.82;34.10;94.04;;
58303;Laerm;44109;52.398;7.024;2023-08-12T00:22:50;57.82;33.41;93.13;;
58303;Laerm;44109;52.398;7.024;2023-08-12T00:25:18;48.65;33.14;72.69;;
58303;Laerm;44109;52.398;7.024;2023-08-12T00:27:46;48.73;33.63;69.44;;
58303;Laerm;44109;52.398;7.024;2023-08-12T00:30:14;50.19;32.48;80.18;;
58303;Laerm;44109;52.398;7.024;2023-08-12T00:32:42;55.73;32.52;91.02;;
58303;Laerm;44109;52.398;7.024;2023-08-12T00:35:11;56.68;32.81;92.07;;
58303;Laerm;44109;52.398;7.024;2023-08-12T00:37:38;55.15;33.31;87.49;;
58303;Laerm;44109;52.398;7.024;2023-08-12T00:40:08;55.75;32.86;89.13;;
58303;Laerm;44109;52.398;7.024;2023-08-12T00:42:35;63.39;33.49;99.48;;
58303;Laerm;44109;52.398;7.024;2023-08-12T00:45:09;50.66;34.69;80.05;;
58303;Laerm;44109;52.398;7.024;2023-08-12T00:47:37;55.68;38.10;89.88;;
58303;Laerm;44109;52.398;7.024;2023-08-12T00:50:06;59.45;36.00;94.77;;
58303;Laerm;44109;52.398;7.024;2023-08-12T00:52:35;57.02;33.66;92.21;;
58303;Laerm;44109;52.398;7.024;2023-08-12T00:55:04;48.82;32.87;72.74;;
58303;Laerm;44109;52.398;7.024;2023-08-12T00:57:31;49.11;32.78;73.49;;
58303;Laerm;44109;52.398;7.024;2023-08-12T01:00:00;55.04;35.50;87.67;;
58303;Laerm;44109;52.398;7.024;2023-08-12T01:02:27;53.59;35.24;86.70;;
58303;Laerm;44109;52.398;7.024;2023-08-12T01:04:55;54.38;35.66;88.53;;
58303;Laerm;44109;52.398;7.024;2023-08-12T01:07:23;51.25;34.80;82.24;;
58303;Laerm;44109;52.398;7.024;2023-08-12T01:09:52;50.33;35.00;75.88;;
58303;Laerm;44109;52.398;7.024;2023-08-12T01:12:28;53.91;41.52;79.64;;
58303;Laerm;44109;52.398;7.024;2023-08-12T01:15:04;57.29;39.18;87.89;;
58303;Laerm;44109;52.398;7.024;2023-08-12T01:17:38;52.43;35.97;79.89;;
58303;Laerm;44109;52.398;7.024;2023-08-12T01:20:09;60.14;34.31;95.07;;
58303;Laerm;44109;52.398;7.024;2023-08-12T01:22:40;57.57;33.49;92.88;;
58303;Laerm;44109;52.398;7.024;2023-08-12T01:25:09;49.76;32.98;73.96;;
58303;Laerm;44109;52.398;7.024;2023-08-12T01:27:37;50.12;33.42;76.25;;
58303;Laerm;44109;52.398;7.024;2023-08-12T01:30:08;49.23;32.87;74.65;;
58303;Laerm;44109;52.398;7.024;2023-08-12T01:32:43;53.11;34.88;84.11;;
58303;Laerm;44109;52.398;7.024;2023-08-12T01:35:18;50.01;34.54;73.11;;
58303;Laerm;44109;52.398;7.024;2023-08-12T01:37:50;49.65;33.17;76.76;;
58303;Laerm;44109;52.398;7.024;2023-08-12T01:40:22;54.23;33.55;88.56;;
58303;Laerm;44109;52.398;7.024;2023-08-12T01:42:52;48.41;33.14;69.32;;
58303;Laerm;44109;52.398;7.024;2023-08-12T01:45:20;48.73;32.28;71.15;;
58303;Laerm;44109;52.398;7.024;2023-08-12T01:47:47;52.38;32.86;84.56;;
58303;Laerm;44109;52.398;7.024;2023-08-12T01:50:17;55.64;32.85;91.12;;
58303;Laerm;44109;52.398;7.024;2023-08-12T01:52:47;48.89;32.28;69.88;;
58303;Laerm;44109;52.398;7.024;2023-08-12T01:55:15;55.74;33.30;89.60;;
58303;Laerm;44109;52.398;7.024;2023-08-12T01:57:44;51.28;35.63;73.71;;
58303;Laerm;44109;52.398;7.024;2023-08-12T02:00:12;59.93;44.35;93.96;;
58303;Laerm;44109;52.398;7.024;2023-08-12T02:02:40;56.84;41.53;84.20;;
58303;Laerm;44109;52.398;7.024;2023-08-12T02:05:08;62.77;36.82;98.02;;
58303;Laerm;44109;52.398;7.024;2023-08-12T02:07:36;58.86;37.22;91.05;;
58303;Laerm;44109;52.398;7.024;2023-08-12T02:10:04;53.68;37.35;81.57;;
58303;Laerm;44109;52.398;7.024;2023-08-12T02:12:31;58.69;35.79;91.92;;
58303;Laerm;44109;52.398;7.024;2023-08-12T02:15:00;57.09;35.30;89.94;;
58303;Laerm;44109;52.398;7.024;2023-08-12T02:17:28;52.53;33.59;83.17;;
58303;Laerm;44109;52.398;7.024;2023-08-12T02:19:56;49.11;34.14;69.51;;
58303;Laerm;44109;52.398;7.024;2023-08-12T02:22:23;57.00;34.50;90.12;;
58303;Laerm;44109;52.398;7.024;2023-08-12T02:24:51;56.64;34.34;90.56;;
58303;Laerm;44109;52.398;7.024;2023-08-12T02:27:19;60.73;34.09;93.30;;
58303;Laerm;44109;52.398;7.024;2023-08-12T02:29:46;49.04;32.87;72.60;;
58303;Laerm;44109;52.398;7.024;2023-08-12T02:32:15;49.59;33.16;76.86;;
58303;Laerm;44109;52.398;7.024;2023-08-12T02:34:43;49.28;33.41;74.07;;
58303;Laerm;44109;52.398;7.024;2023-08-12T02:37:10;50.29;33.18;74.63;;
58303;Laerm;44109;52.398;7.024;2023-08-12T02:39:39;49.68;32.85;77.66;;
58303;Laerm;44109;52.398;7.024;2023-08-12T02:42:06;49.08;32.67;74.68;;
58303;Laerm;44109;52.398;7.024;2023-08-12T02:44:34;49.65;33.29;76.57;;
58303;Laerm;44109;52.398;7.024;2023-08-12T02:47:01;49.31;32.79;77.37;;
58303;Laerm;44109;52.398;7.024;2023-08-12T02:49:30;48.50;32.45;68.18;;
58303;Laerm;44109;52.398;7.024;2023-08-12T02:51:58;48.89;32.60;76.31;;
58303;Laerm;44109;52.398;7.024;2023-08-12T02:54:26;57.82;32.48;90.80;;
58303;Laerm;44109;52.398;7.024;2023-08-12T02:56:53;53.72;34.34;85.30;;
58303;Laerm;44109;52.398;7.024;2023-08-12T02:59:21;59.24;42.60;89.51;;
58303;Laerm;44109;52.398;7.024;2023-08-12T03:01:51;60.44;40.30;90.35;;
58303;Laerm;44109;52.398;7.024;2023-08-12T03:04:18;63.65;36.82;99.31;;
58303;Laerm;44109;52.398;7.024;2023-08-12T03:06:47;56.46;37.10;90.50;;
58303;Laerm;44109;52.398;7.024;2023-08-12T03:09:15;55.50;35.31;89.55;;
58303;Laerm;44109;52.398;7.024;2023-08-12T03:11:44;61.46;34.21;96.13;;
58303;Laerm;44109;52.398;7.024;2023-08-12T03:14:12;53.00;33.83;81.96;;
58303;Laerm;44109;52.398;7.024;2023-08-12T03:16:40;50.03;33.16;74.63;;
58303;Laerm;44109;52.398;7.024;2023-08-12T03:19:07;51.17;33.07;77.04;;
58303;Laerm;44109;52.398;7.024;2023-08-12T03:21:35;59.02;37.32;93.09;;
58303;Laerm;44109;52.398;7.024;2023-08-12T03:24:05;60.24;34.26;94.80;;
58303;Laerm;44109;52.398;7.024;2023-08-12T03:26:33;50.76;33.42;76.97;;
58303;Laerm;44109;52.398;7.024;2023-08-12T03:29:00;50.86;34.45;79.64;;
58303;Laerm;44109;52.398;7.024;2023-08-12T03:31:28;54.58;33.15;88.91;;
58303;Laerm;44109;52.398;7.024;2023-08-12T03:33:56;53.30;33.20;86.29;;
58303;Laerm;44109;52.398;7.024;2023-08-12T03:36:23;50.29;32.79;78.70;;
58303;Laerm;44109;52.398;7.024;2023-08-12T03:38:51;48.59;33.39;65.85;;
58303;Laerm;44109;52.398;7.024;2023-08-12T03:41:20;55.59;32.48;90.86;;
58303;Laerm;44109;52.398;7.024;2023-08-12T03:43:47;58.42;33.55;93.44;;
58303;Laerm;44109;52.398;7.024;2023-08-12T03:46:17;48.79;32.80;70.89;;
58303;Laerm;44109;52.398;7.024;2023-08-12T03:48:45;48.51;32.76;65.76;;
58303;Laerm;44109;52.398;7.024;2023-08-12T03:51:13;48.81;32.93;71.06;;
58303;Laerm;44109;52.398;7.024;2023-08-12T03:53:40;49.48;33.04;77.81;;
58303;Laerm;44109;52.398;7.024;2023-08-12T03:56:08;48.62;32.80;67.93;;
58303;Laerm;44109;52.398;7.024;2023-08-12T03:58:37;49.14;32.62;72.94;;
58303;Laerm;44109;52.398;7.024;2023-08-12T04:01:05;48.75;32.83;70.26;;
58303;Laerm;44109;52.398;7.024;2023-08-12T04:03:32;52.74;33.01;85.83;;
58303;Laerm;44109;52.398;7.024;2023-08-12T04:06:00;59.54;32.97;95.37;;
58303;Laerm;44109;52.398;7.024;2023-08-12T04:08:29;49.43;33.25;76.44;;
58303;Laerm;44109;52.398;7.024;2023-08-12T04:10:58;49.02;32.90;74.12;;
58303;Laerm;44109;52.398;7.024;2023-08-12T04:13:26;48.70;33.28;66.76;;
58303;Laerm;44109;52.398;7.024;2023-08-12T04:15:55;49.54;33.49;68.41;;
58303;Laerm;44109;52.398;7.024;2023-08-12T04:18:22;55.97;33.66;91.16;;
58303;Laerm;44109;52.398;7.024;2023-08-12T04:20:51;58.06;33.97;91.06;;
58303;Laerm;44109;52.398;7.024;2023-08-12T04:23:19;49.36;34.31;75.79;;
58303;Laerm;44109;52.398;7.024;2023-08-12T04:25:48;50.01;33.68;72.54;;
58303;Laerm;44109;52.398;7.024;2023-08-12T04:28:16;53.70;34.35;87.91;;
58303;Laerm;44109;52.398;7.024;2023-08-12T04:30:46;48.88;34.45;70.06;;
58303;Laerm;44109;52.398;7.024;2023-08-12T04:33:15;49.13;34.15;74.08;;
58303;Laerm;44109;52.398;7.024;2023-08-12T04:35:43;52.64;34.17;74.00;;
58303;Laerm;44109;52.398;7.024;2023-08-12T04:38:11;48.77;33.93;66.20;;
58303;Laerm;44109;52.398;7.024;2023-08-12T04:40:39;48.65;33.09;65.03;;
58303;Laerm;44109;52.398;7.024;2023-08-12T04:43:07;49.86;33.38;81.11;;
58303;Laerm;44109;52.398;7.024;2023-08-12T04:45:35;48.74;34.73;64.33;;
58303;Laerm;44109;52.398;7.024;2023-08-12T04:48:06;55.73;33.44;91.06;;
58303;Laerm;44109;52.398;7.024;2023-08-12T04:50:35;49.62;33.75;73.24;;
58303;Laerm;44109;52.398;7.024;2023-08-12T04:53:03;51.91;33.64;85.35;;
58303;Laerm;44109;52.398;7.024;2023-08-12T04:55:31;48.21;33.39;65.84;;
58303;Laerm;44109;52.398;7.024;2023-08-12T04:57:59;48.27;33.47;66.12;;
58303;Laerm;44109;52.398;7.024;2023-08-12T05:00:27;48.46;33.50;62.28;;
58303;Laerm;44109;52.398;7.024;2023-08-12T05:02:55;48.60;33.48;65.59;;
58303;Laerm;44109;52.398;7.024;2023-08-12T05:05:22;48.32;33.72;67.48;;
58303;Laerm;44109;52.398;7.024;2023-08-12T05:07:51;49.79;34.32;77.30;;
58303;Laerm;44109;52.398;7.024;2023-08-12T05:10:19;49.23;32.52;76.28;;
58303;Laerm;44109;52.398;7.024;2023-08-12T05:12:46;51.24;33.91;81.50;;
58303;Laerm;44109;52.398;7.024;2023-08-12T05:15:16;49.00;33.72;70.23;;
58303;Laerm;44109;52.398;7.024;2023-08-12T05:17:44;48.62;33.70;72.42;;
58303;Laerm;44109;52.398;7.024;2023-08-12T05:20:11;48.57;34.27;61.45;;
58303;Laerm;44109;52.398;7.024;2023-08-12T05:22:39;48.30;33.33;64.56;;
58303;Laerm;44109;52.398;7.024;2023-08-12T05:25:09;48.20;33.58;65.89;;
58303;Laerm;44109;52.398;7.024;2023-08-12T05:27:36;49.78;33.12;72.87;;
58303;Laerm;44109;52.398;7.024;2023-08-12T05:30:06;52.98;34.03;87.33;;
58303;Laerm;44109;52.398;7.024;2023-08-12T05:32:34;48.41;33.31;68.82;;
58303;Laerm;44109;52.398;7.024;2023-08-12T05:35:02;48.16;33.48;64.16;;
58303;Laerm;44109;52.398;7.024;2023-08-12T05:37:29;48.34;34.69;65.17;;
58303;Laerm;44109;52.398;7.024;2023-08-12T05:39:57;48.83;33.08;71.65;;
58303;Laerm;44109;52.398;7.024;2023-08-12T05:42:26;48.01;32.62;62.51;;
58303;Laerm;44109;52.398;7.024;2023-08-12T05:44:54;48.13;34.17;62.61;;
58303;Laerm;44109;52.398;7.024;2023-08-12T05:47:21;50.43;34.62;75.32;;
58303;Laerm;44109;52.398;7.024;2023-08-12T05:49:49;49.29;32.95;71.46;;
58303;Laerm;44109;52.398;7.024;2023-08-12T05:52:16;48.96;35.34;61.37;;
58303;Laerm;44109;52.398;7.024;2023-08-12T05:54:44;57.36;35.68;92.42;;
58303;Laerm;44109;52.398;7.024;2023-08-12T05:57:12;50.46;34.13;70.51;;
58303;Laerm;44109;52.398;7.024;2023-08-12T05:59:41;50.10;35.87;71.46;;
58303;Laerm;44109;52.398;7.024;2023-08-12T06:02:08;49.42;37.87;67.36;;
58303;Laerm;44109;52.398;7.024;2023-08-12T06:04:36;49.84;41.84;63.47;;
58303;Laerm;44109;52.398;7.024;2023-08-12T06:07:04;50.53;43.00;71.02;;
58303;Laerm;44109;52.398;7.024;2023-08-12T06:09:32;50.62;42.96;68.22;;
58303;Laerm;44109;52.398;7.024;2023-08-12T06:11:59;50.66;43.27;68.83;;
58303;Laerm;44109;52.398;7.024;2023-08-12T06:14:27;50.22;41.71;70.97;;
58303;Laerm;44109;52.398;7.024;2023-08-12T06:16:56;52.32;41.81;73.76;;
58303;Laerm;44109;52.398;7.024;2023-08-12T06:19:24;51.25;39.88;70.83;;
58303;Laerm;44109;52.398;7.024;2023-08-12T06:21:52;50.41;42.20;67.70;;
58303;Laerm;44109;52.398;7.024;2023-08-12T06:24:19;50.59;42.31;67.59;;
58303;Laerm;44109;52.398;7.024;2023-08-12T06:26:47;51.64;42.22;73.13;;
58303;Laerm;44109;52.398;7.024;2023-08-12T06:29:14;49.91;39.36;66.94;;
58303;Laerm;44109;52.398;7.024;2023-08-12T06:31:42;49.64;40.74;58.12;;
58303;Laerm;44109;52.398;7.024;2023-08-12T06:34:11;49.81;41.85;66.00;;
58303;Laerm;44109;52.398;7.024;2023-08-12T06:36:39;50.22;43.31;63.47;;
58303;Laerm;44109;52.398;7.024;2023-08-12T06:39:06;49.92;42.40;59.78;;
58303;Laerm;44109;52.398;7.024;2023-08-12T06:41:34;49.78;42.08;61.97;;
58303;Laerm;44109;52.398;7.024;2023-08-12T06:44:02;50.82;42.76;71.82;;
58303;Laerm;44109;52.398;7.024;2023-08-12T06:46:30;49.80;37.06;77.12;;
58303;Laerm;44109;52.398;7.024;2023-08-12T06:48:58;48.50;36.19;68.11;;
58303;Laerm;44109;52.398;7.024;2023-08-12T06:51:27;48.88;36.57;67.08;;
58303;Laerm;44109;52.398;7.024;2023-08-12T06:53:55;50.16;36.09;67.88;;
58303;Laerm;44109;52.398;7.024;2023-08-12T06:56:22;50.95;38.78;72.01;;
58303;Laerm;44109;52.398;7.024;2023-08-12T06:58:50;53.49;36.83;85.22;;
58303;Laerm;44109;52.398;7.024;2023-08-12T07:01:21;48.94;36.94;67.36;;
58303;Laerm;44109;52.398;7.024;2023-08-12T07:03:48;51.14;38.39;79.03;;
58303;Laerm;44109;52.398;7.024;2023-08-12T07:06:16;48.58;36.31;68.81;;
58303;Laerm;44109;52.398;7.024;2023-08-12T07:08:45;51.35;35.95;66.35;;
58303;Laerm;44109;52.398;7.024;2023-08-12T07:11:12;57.27;47.88;81.58;;
58303;Laerm;44109;52.398;7.024;2023-08-12T07:13:40;64.73;48.25;99.51;;
58303;Laerm;44109;52.398;7.024;2023-08-12T07:16:09;66.34;51.45;96.58;;
58303;Laerm;44109;52.398;7.024;2023-08-12T07:18:37;70.76;51.69;102.35;;
58303;Laerm;44109;52.398;7.024;2023-08-12T07:21:04;70.62;49.40;97.70;;
58303;Laerm;44109;52.398;7.024;2023-08-12T07:23:32;70.65;49.74;101.80;;
58303;Laerm;44109;52.398;7.024;2023-08-12T07:26:01;71.01;49.08;103.22;;
58303;Laerm;44109;52.398;7.024;2023-08-12T07:28:29;69.11;52.50;97.83;;
58303;Laerm;44109;52.398;7.024;2023-08-12T07:30:56;70.62;53.09;96.43;;
58303;Laerm;44109;52.398;7.024;2023-08-12T07:33:24;72.43;55.09;101.71;;
58303;Laerm;44109;52.398;7.024;2023-08-12T07:35:52;71.00;52.24;95.82;;
58303;Laerm;44109;52.398;7.024;2023-08-12T07:38:19;70.79;53.19;95.65;;
58303;Laerm;44109;52.398;7.024;2023-08-12T07:40:48;74.26;56.88;99.99;;
58303;Laerm;44109;52.398;7.024;2023-08-12T07:43:17;74.15;56.63;102.30;;
58303;Laerm;44109;52.398;7.024;2023-08-12T07:45:45;74.79;56.50;101.76;;
58303;Laerm;44109;52.398;7.024;2023-08-12T07:48:17;73.76;59.06;99.34;;
58303;Laerm;44109;52.398;7.024;2023-08-12T07:50:45;74.20;58.94;100.44;;
58303;Laerm;44109;52.398;7.024;2023-08-12T07:53:15;73.48;55.74;99.20;;
58303;Laerm;44109;52.398;7.024;2023-08-12T07:55:43;73.77;54.93;98.96;;
58303;Laerm;44109;52.398;7.024;2023-08-12T07:58:10;73.20;56.66;99.38;;
58303;Laerm;44109;52.398;7.024;2023-08-12T08:00:40;73.53;55.93;101.78;;
58303;Laerm;44109;52.398;7.024;2023-08-12T08:03:07;73.52;57.48;98.61;;
58303;Laerm;44109;52.398;7.024;2023-08-12T08:05:35;73.88;57.86;96.83;;
58303;Laerm;44109;52.398;7.024;2023-08-12T08:08:03;75.34;57.48;99.88;;
58303;Laerm;44109;52.398;7.024;2023-08-12T08:10:31;72.71;55.64;96.54;;
58303;Laerm;44109;52.398;7.024;2023-08-12T08:12:59;73.67;54.81;101.20;;
58303;Laerm;44109;52.398;7.024;2023-08-12T08:15:26;72.65;54.60;99.57;;
58303;Laerm;44109;52.398;7.024;2023-08-12T08:17:55;74.96;56.61;101.74;;
58303;Laerm;44109;52.398;7.024;2023-08-12T08:20:23;75.67;58.27;102.95;;
58303;Laerm;44109;52.398;7.024;2023-08-12T08:22:50;76.20;58.37;100.67;;
58303;Laerm;44109;52.398;7.024;2023-08-12T08:25:21;75.31;58.32;103.20;;
58303;Laerm;44109;52.398;7.024;2023-08-12T08:27:49;76.56;58.74;103.79;;
58303;Laerm;44109;52.398;7.024;2023-08-12T08:30:16;74.81;56.37;99.49;;
58303;Laerm;44109;52.398;7.024;2023-08-12T08:32:44;73.73;53.06;99.91;;
58303;Laerm;44109;52.398;7.024;2023-08-12T08:35:14;71.60;50.20;99.34;;
58303;Laerm;44109;52.398;7.024;2023-08-12T08:37:42;67.16;46.82;94.87;;
58303;Laerm;44109;52.398;7.024;2023-08-12T08:40:11;57.54;45.66;83.51;;
58303;Laerm;44109;52.398;7.024;2023-08-12T08:42:40;62.28;43.96;95.93;;
58303;Laerm;44109;52.398;7.024;2023-08-12T08:45:13;58.91;41.93;90.61;;
58303;Laerm;44109;52.398;7.024;2023-08-12T08:47:42;66.86;50.27;96.99;;
58303;Laerm;44109;52.398;7.024;2023-08-12T08:50:10;67.05;48.47;95.96;;
58303;Laerm;44109;52.398;7.024;2023-08-12T08:52:39;65.93;44.71;96.23;;
58303;Laerm;44109;52.398;7.024;2023-08-12T08:55:08;66.12;41.68;97.58;;
58303;Laerm;44109;52.398;7.024;2023-08-12T08:57:37;59.85;43.02;91.88;;
58303;Laerm;44109;52.398;7.024;2023-08-12T09:00:07;64.19;43.01;94.96;;
58303;Laerm;44109;52.398;7.024;2023-08-12T09:02:36;53.09;41.18;79.41;;
58303;Laerm;44109;52.398;7.024;2023-08-12T09:05:06;63.19;41.11;98.46;;
58303;Laerm;44109;52.398;7.024;2023-08-12T09:07:34;52.91;41.54;78.46;;
58303;Laerm;44109;52.398;7.024;2023-08-12T09:10:04;59.97;39.55;95.15;;
58303;Laerm;44109;52.398;7.024;2023-08-12T09:12:33;51.71;41.35;75.72;;
58303;Laerm;44109;52.398;7.024;2023-08-12T09:15:01;51.74;42.60;73.01;;
58303;Laerm;44109;52.398;7.024;2023-08-12T09:17:30;51.06;42.32;73.22;;
58303;Laerm;44109;52.398;7.024;2023-08-12T09:19:59;51.39;41.40;74.99;;
58303;Laerm;44109;52.398;7.024;2023-08-12T09:22:26;51.58;40.94;79.68;;
58303;Laerm;44109;52.398;7.024;2023-08-12T09:24:56;57.25;42.97;91.74;;
58303;Laerm;44109;52.398;7.024;2023-08-12T09:27:26;51.26;40.80;76.30;;
58303;Laerm;44109;52.398;7.024;2023-08-12T09:29:56;49.64;40.15;63.76;;
58303;Laerm;44109;52.398;7.024;2023-08-12T09:32:24;52.17;41.65;76.39;;
58303;Laerm;44109;52.398;7.024;2023-08-12T09:34:54;55.56;41.53;88.25;;
58303;Laerm;44109;52.398;7.024;2023-08-12T09:37:24;51.65;41.83;77.67;;
58303;Laerm;44109;52.398;7.024;2023-08-12T09:39:52;59.64;41.22;95.11;;
58303;Laerm;44109;52.398;7.024;2023-08-12T09:42:19;52.29;43.06;77.30;;
58303;Laerm;44109;52.398;7.024;2023-08-12T09:44:49;62.71;41.92;95.94;;
58303;Laerm;44109;52.398;7.024;2023-08-12T09:47:17;52.34;44.05;80.20;;
58303;Laerm;44109;52.398;7.024;2023-08-12T09:49:45;52.22;40.93;84.36;;
58303;Laerm;44109;52.398;7.024;2023-08-12T09:52:13;62.74;42.84;98.34;;
58303;Laerm;44109;52.398;7.024;2023-08-12T09:54:41;62.93;43.26;96.73;;
58303;Laerm;44109;52.398;7.024;2023-08-12T09:57:11;57.25;41.64;91.29;;
58303;Laerm;44109;52.398;7.024;2023-08-12T09:59:41;64.38;40.16;96.21;;
58303;Laerm;44109;52.398;7.024;2023-08-12T10:02:15;59.77;42.25;94.30;;
58303;Laerm;44109;52.398;7.024;2023-08-12T10:04:46;52.53;42.34;79.75;;
58303;Laerm;44109;52.398;7.024;2023-08-12T10:07:19;67.65;40.63;100.93;;
58303;Laerm;44109;52.398;7.024;2023-08-12T10:09:47;63.65;45.67;92.84;;
58303;Laerm;44109;52.398;7.024;2023-08-12T10:12:15;67.21;45.23;101.11;;
58303;Laerm;44109;52.398;7.024;2023-08-12T10:14:44;67.98;44.09;102.25;;
58303;Laerm;44109;52.398;7.024;2023-08-12T10:17:15;60.66;42.12;92.83;;
58303;Laerm;44109;52.398;7.024;2023-08-12T10:19:44;63.99;41.03;95.00;;
58303;Laerm;44109;52.398;7.024;2023-08-12T10:22:13;61.03;42.46;96.21;;
58303;Laerm;44109;52.398;7.024;2023-08-12T10:24:43;56.11;42.30;88.31;;
58303;Laerm;44109;52.398;7.024;2023-08-12T10:27:12;65.76;40.98;100.04;;
58303;Laerm;44109;52.398;7.024;2023-08-12T10:29:43;54.56;41.44;85.35;;
58303;Laerm;44109;52.398;7.024;2023-08-12T10:32:11;64.85;41.48;97.37;;
58303;Laerm;44109;52.398;7.024;2023-08-12T10:34:42;58.93;42.04;92.46;;
58303;Laerm;44109;52.398;7.024;2023-08-12T10:37:11;57.16;41.11;91.73;;
58303;Laerm;44109;52.398;7.024;2023-08-12T10:39:39;51.45;40.32;78.35;;
58303;Laerm;44109;52.398;7.024;2023-08-12T10:42:07;50.82;40.76;78.52;;
58303;Laerm;44109;52.398;7.024;2023-08-12T10:44:50;52.82;39.49;86.99;;
58303;Laerm;44109;52.398;7.024;2023-08-12T10:47:18;49.20;40.52;69.09;;
58303;Laerm;44109;52.398;7.024;2023-08-12T10:49:50;63.73;39.54;99.66;;
58303;Laerm;44109;52.398;7.024;2023-08-12T10:52:27;65.89;41.28;99.27;;
58303;Laerm;44109;52.398;7.024;2023-08-12T10:55:16;52.11;40.41;79.66;;
58303;Laerm;44109;52.398;7.024;2023-08-12T10:57:44;57.38;41.53;92.60;;
58303;Laerm;44109;52.398;7.024;2023-08-12T11:00:15;52.22;42.35;83.32;;
58303;Laerm;44109;52.398;7.024;2023-08-12T11:02:49;51.10;42.27;58.91;;
58303;Laerm;44109;52.398;7.024;2023-08-12T11:05:19;50.47;41.42;64.84;;
58303;Laerm;44109;52.398;7.024;2023-08-12T11:07:55;56.19;43.35;90.99;;
58303;Laerm;44109;52.398;7.024;2023-08-12T11:10:25;51.26;42.35;73.19;;
58303;Laerm;44109;52.398;7.024;2023-08-12T11:12:55;50.64;43.05;59.33;;
58303;Laerm;44109;52.398;7.024;2023-08-12T11:15:31;53.46;42.61;80.95;;
58303;Laerm;44109;52.398;7.024;2023-08-12T11:18:02;50.69;43.04;69.83;;
58303;Laerm;44109;52.398;7.024;2023-08-12T11:20:33;50.45;42.72;69.73;;
58303;Laerm;44109;52.398;7.024;2023-08-12T11:23:01;49.72;41.98;62.22;;
58303;Laerm;44109;52.398;7.024;2023-08-12T11:25:31;49.40;39.09;62.97;;
58303;Laerm;44109;52.398;7.024;2023-08-12T11:27:59;48.98;39.50;59.36;;
58303;Laerm;44109;52.398;7.024;2023-08-12T11:30:27;49.23;38.60;70.26;;
58303;Laerm;44109;52.398;7.024;2023-08-12T11:32:55;49.17;38.88;65.54;;
58303;Laerm;44109;52.398;7.024;2023-08-12T11:35:24;50.25;40.92;64.32;;
58303;Laerm;44109;52.398;7.024;2023-08-12T11:37:56;49.63;39.75;67.59;;
58303;Laerm;44109;52.398;7.024;2023-08-12T11:40:26;48.66;36.30;62.61;;
58303;Laerm;44109;52.398;7.024;2023-08-12T11:42:55;49.56;38.14;72.63;;
58303;Laerm;44109;52.398;7.024;2023-08-12T11:45:25;52.11;37.92;83.99;;
58303;Laerm;44109;52.398;7.024;2023-08-12T11:47:53;50.20;37.79;70.97;;
58303;Laerm;44109;52.398;7.024;2023-08-12T11:50:23;48.63;38.48;57.72;;
58303;Laerm;44109;52.398;7.024;2023-08-12T11:52:55;48.83;38.89;60.45;;
58303;Laerm;44109;52.398;7.024;2023-08-12T11:55:23;49.22;39.93;59.13;;
58303;Laerm;44109;52.398;7.024;2023-08-12T11:57:52;49.63;39.76;69.71;;
58303;Laerm;44109;52.398;7.024;2023-08-12T12:00:20;50.01;40.70;64.47;;
58303;Laerm;44109;52.398;7.024;2023-08-12T12:02:52;49.99;39.70;68.60;;
58303;Laerm;44109;52.398;7.024;2023-08-12T12:05:23;49.57;40.15;59.36;;
58303;Laerm;44109;52.398;7.024;2023-08-12T12:07:52;49.54;37.84;67.77;;
58303;Laerm;44109;52.398;7.024;2023-08-12T12:10:26;50.30;40.20;64.26;;
58303;Laerm;44109;52.398;7.024;2023-08-12T12:12:55;49.75;38.27;60.43;;
58303;Laerm;44109;52.398;7.024;2023-08-12T12:15:23;49.97;39.46;60.57;;
58303;Laerm;44109;52.398;7.024;2023-08-12T12:17:51;48.82;37.44;58.93;;
58303;Laerm;44109;52.398;7.024;2023-08-12T12:20:19;49.78;39.59;74.77;;
58303;Laerm;44109;52.398;7.024;2023-08-12T12:22:48;49.87;39.22;67.47;;
58303;Laerm;44109;52.398;7.024;2023-08-12T12:25:17;50.18;39.11;64.56;;
58303;Laerm;44109;52.398;7.024;2023-08-12T12:27:46;50.16;39.86;69.21;;
58303;Laerm;44109;52.398;7.024;2023-08-12T12:30:16;51.81;40.18;75.35;;
58303;Laerm;44109;52.398;7.024;2023-08-12T12:32:45;71.73;40.39;85.93;;
58303;Laerm;44109;52.398;7.024;2023-08-12T12:35:12;70.97;38.94;85.90;;
58303;Laerm;44109;52.398;7.024;2023-08-12T12:37:40;49.95;39.21;65.84;;
58303;Laerm;44109;52.398;7.024;2023-08-12T12:40:10;49.50;39.12;64.94;;
58303;Laerm;44109;52.398;7.024;2023-08-12T12:42:39;49.15;38.68;63.46;;
58303;Laerm;44109;52.398;7.024;2023-08-12T12:45:09;49.28;38.89;59.44;;
58303;Laerm;44109;52.398;7.024;2023-08-12T12:47:37;50.15;40.60;59.04;;
58303;Laerm;44109;52.398;7.024;2023-08-12T12:50:06;51.82;43.04;59.78;;
58303;Laerm;44109;52.398;7.024;2023-08-12T12:52:34;50.09;42.32;60.42;;
58303;Laerm;44109;52.398;7.024;2023-08-12T12:55:01;53.43;41.10;72.30;;
58303;Laerm;44109;52.398;7.024;2023-08-12T12:57:30;52.92;44.09;68.04;;
58303;Laerm;44109;52.398;7.024;2023-08-12T12:59:59;52.01;40.19;58.76;;
58303;Laerm;44109;52.398;7.024;2023-08-12T13:02:27;51.41;43.07;62.24;;
58303;Laerm;44109;52.398;7.024;2023-08-12T13:04:54;51.42;42.20;62.08;;
58303;Laerm;44109;52.398;7.024;2023-08-12T13:07:22;49.43;40.07;58.45;;
58303;Laerm;44109;52.398;7.024;2023-08-12T13:09:50;51.19;41.96;61.41;;
58303;Laerm;44109;52.398;7.024;2023-08-12T13:12:17;49.58;40.51;59.04;;
58303;Laerm;44109;52.398;7.024;2023-08-12T13:14:45;50.36;42.53;62.16;;
58303;Laerm;44109;52.398;7.024;2023-08-12T13:17:15;49.43;40.36;58.66;;
58303;Laerm;44109;52.398;7.024;2023-08-12T13:19:43;49.19;39.54;60.71;;
58303;Laerm;44109;52.398;7.024;2023-08-12T13:22:10;49.01;38.29;61.23;;
58303;Laerm;44109;52.398;7.024;2023-08-12T13:24:38;49.33;39.16;60.62;;
58303;Laerm;44109;52.398;7.024;2023-08-12T13:27:05;48.67;37.05;59.20;;
58303;Laerm;44109;52.398;7.024;2023-08-12T13:29:34;49.25;38.11;60.54;;
58303;Laerm;44109;52.398;7.024;2023-08-12T13:32:01;49.54;38.87;58.03;;
58303;Laerm;44109;52.398;7.024;2023-08-12T13:34:30;50.05;39.76;62.91;;
58303;Laerm;44109;52.398;7.024;2023-08-12T13:36:58;51.75;39.31;71.26;;
58303;Laerm;44109;52.398;7.024;2023-08-12T13:39:26;50.00;41.31;61.58;;
58303;Laerm;44109;52.398;7.024;2023-08-12T13:41:53;54.01;40.15;71.36;;
58303;Laerm;44109;52.398;7.024;2023-08-12T13:44:23;51.24;40.55;64.08;;
58303;Laerm;44109;52.398;7.024;2023-08-12T13:46:50;50.14;40.29;68.61;;
58303;Laerm;44109;52.398;7.024;2023-08-12T13:49:18;48.15;40.51;57.08;;
58303;Laerm;44109;52.398;7.024;2023-08-12T13:51:47;48.89;38.80;70.26;;